createdAt,value
2023-01-19T00:00:18.007Z,100160.13
2023-01-19T00:03:21.591Z,100157.63
2023-01-19T00:06:24.650Z,100166.59
2023-01-19T00:09:33.298Z,100172.03
2023-01-19T00:12:36.370Z,100172.97
2023-01-19T00:15:40.509Z,100171.38
2023-01-19T00:18:43.315Z,100167.25
2023-01-19T00:21:46.192Z,100177.13
2023-01-19T00:24:49.031Z,100172.00
2023-01-19T00:27:51.798Z,100165.97
2023-01-19T00:30:56.033Z,100172.00
2023-01-19T00:33:58.884Z,100178.16
2023-01-19T00:37:03.062Z,100176.44
2023-01-19T00:40:07.495Z,100187.09
2023-01-19T00:43:10.389Z,100196.19
2023-01-19T00:46:14.984Z,100192.69
2023-01-19T00:49:18.635Z,100197.91
2023-01-19T00:52:21.503Z,100205.88
2023-01-19T00:55:24.877Z,100211.13
2023-01-19T00:58:27.673Z,100210.28
2023-01-19T01:01:45.056Z,100209.41
2023-01-19T01:04:54.651Z,100214.72
2023-01-19T01:07:57.922Z,100215.69
2023-01-19T01:11:00.786Z,100213.03
2023-01-19T01:14:03.625Z,100213.03
2023-01-19T01:17:11.282Z,100215.59
2023-01-19T01:20:17.895Z,100215.59
2023-01-19T01:23:22.672Z,100225.28
2023-01-19T01:26:27.112Z,100226.16
2023-01-19T01:29:30.651Z,100234.13
2023-01-19T01:32:34.891Z,100230.59
2023-01-19T01:35:37.716Z,100227.09
2023-01-19T01:38:40.798Z,100229.00
2023-01-19T01:41:43.591Z,100228.19
2023-01-19T01:44:52.744Z,100238.94
2023-01-19T01:48:02.331Z,100242.47
2023-01-19T01:51:25.395Z,100233.63
2023-01-19T01:54:30.478Z,100240.66
2023-01-19T01:57:34.011Z,100243.22
2023-01-19T02:00:51.788Z,100242.31
2023-01-19T02:03:58.510Z,100246.66
2023-01-19T02:07:18.485Z,100243.22
2023-01-19T02:10:40.771Z,100238.84
2023-01-19T02:13:45.238Z,100245.13
2023-01-19T02:16:48.722Z,100245.13
2023-01-19T02:19:53.940Z,100232.75
2023-01-19T02:23:01.669Z,100230.09
2023-01-19T02:26:09.529Z,100236.38
2023-01-19T02:29:14.381Z,100241.69
2023-01-19T02:32:17.356Z,100240.72
2023-01-19T02:35:21.368Z,100233.72
2023-01-19T02:38:27.914Z,100224.00
2023-01-19T02:41:35.783Z,100225.81
2023-01-19T02:44:41.063Z,100234.72
2023-01-19T02:47:46.259Z,100225.97
2023-01-19T02:50:53.081Z,100224.28
2023-01-19T02:54:23.334Z,100222.47
2023-01-19T02:57:39.950Z,100225.13
2023-01-19T03:00:52.989Z,100225.13
2023-01-19T03:04:00.923Z,100223.31
2023-01-19T03:07:10.389Z,100230.38
2023-01-19T03:10:22.223Z,100235.75
2023-01-19T03:13:34.889Z,100234.81
2023-01-19T03:16:42.374Z,100240.16
2023-01-19T03:19:49.244Z,100238.34
2023-01-19T03:22:59.226Z,100239.28
2023-01-19T03:26:05.241Z,100235.75
2023-01-19T03:29:13.185Z,100231.41
2023-01-19T03:32:19.058Z,100231.41
2023-01-19T03:35:25.237Z,100237.66
2023-01-19T03:38:28.584Z,100235.94
2023-01-19T03:41:34.268Z,100234.13
2023-01-19T03:44:40.674Z,100227.00
2023-01-19T03:47:43.575Z,100235.84
2023-01-19T03:50:46.691Z,100245.56
2023-01-19T03:53:50.569Z,100260.56
2023-01-19T03:56:54.034Z,100253.44
2023-01-19T03:59:58.255Z,100248.13
2023-01-19T04:03:01.486Z,100256.13
2023-01-19T04:06:04.749Z,100256.97
2023-01-19T04:09:08.156Z,100263.13
2023-01-19T04:12:11.084Z,100262.22
2023-01-19T04:15:15.614Z,100264.88
2023-01-19T04:18:18.398Z,100271.88
2023-01-19T04:21:21.316Z,100274.50
2023-01-19T04:24:24.173Z,100265.63
2023-01-19T04:27:27.075Z,100269.22
2023-01-19T04:30:31.264Z,100265.63
2023-01-19T04:33:35.006Z,100263.91
2023-01-19T04:36:37.830Z,100270.19
2023-01-19T04:39:40.792Z,100270.19
2023-01-19T04:42:45.343Z,100268.47
2023-01-19T04:45:49.958Z,100267.63
2023-01-19T04:48:52.751Z,100271.97
2023-01-19T04:51:55.612Z,100273.78
2023-01-19T04:54:58.437Z,100268.56
2023-01-19T04:58:01.620Z,100265.03
2023-01-19T05:01:10.104Z,100273.97
2023-01-19T05:04:13.010Z,100269.56
2023-01-19T05:07:15.984Z,100261.59
2023-01-19T05:10:18.969Z,100265.22
2023-01-19T05:13:22.085Z,100262.56
2023-01-19T05:16:26.424Z,100258.06
2023-01-19T05:19:29.252Z,100265.22
2023-01-19T05:22:32.638Z,100261.78
2023-01-19T05:25:35.713Z,100264.50
2023-01-19T05:28:39.083Z,100260.06
2023-01-19T05:31:43.452Z,100263.56
2023-01-19T05:34:46.429Z,100255.59
2023-01-19T05:37:49.882Z,100254.63
2023-01-19T05:40:58.146Z,100245.81
2023-01-19T05:44:00.930Z,100247.63
2023-01-19T05:47:05.280Z,100251.97
2023-01-19T05:50:08.860Z,100256.47
2023-01-19T05:53:12.102Z,100266.13
2023-01-19T05:56:14.895Z,100268.81
2023-01-19T05:59:23.978Z,100280.31
2023-01-19T06:02:30.144Z,100282.00
2023-01-19T06:05:33.230Z,100285.53
2023-01-19T06:08:36.088Z,100290.84
2023-01-19T06:11:38.869Z,100295.25
2023-01-19T06:14:41.748Z,100300.56
2023-01-19T06:17:45.930Z,100297.91
2023-01-19T06:20:49.106Z,100305.91
2023-01-19T06:23:51.972Z,100307.59
2023-01-19T06:26:55.298Z,100297.91
2023-01-19T06:29:58.136Z,100310.34
2023-01-19T06:33:02.678Z,100313.88
2023-01-19T06:36:06.461Z,100328.03
2023-01-19T06:39:10.651Z,100326.22
2023-01-19T06:42:13.643Z,100319.19
2023-01-19T06:45:16.625Z,100327.19
2023-01-19T06:48:21.219Z,100323.56
2023-01-19T06:51:25.525Z,100316.53
2023-01-19T06:54:28.372Z,100321.00
2023-01-19T06:57:31.230Z,100314.81
2023-01-19T07:00:34.039Z,100328.09
2023-01-19T07:03:38.624Z,100337.06
2023-01-19T07:06:42.671Z,100329.06
2023-01-19T07:09:45.593Z,100329.91
2023-01-19T07:12:48.675Z,100332.56
2023-01-19T07:15:51.637Z,100336.09
2023-01-19T07:18:55.999Z,100339.72
2023-01-19T07:21:59.137Z,100340.63
2023-01-19T07:25:02.029Z,100332.66
2023-01-19T07:28:05.006Z,100340.81
2023-01-19T07:31:08.938Z,100344.31
2023-01-19T07:34:13.148Z,100352.25
2023-01-19T07:37:16.224Z,100354.97
2023-01-19T07:40:19.308Z,100349.63
2023-01-19T07:43:22.154Z,100346.97
2023-01-19T07:46:25.139Z,100338.06
2023-01-19T07:49:29.474Z,100356.78
2023-01-19T07:52:32.334Z,100355.03
2023-01-19T07:55:35.190Z,100359.75
2023-01-19T07:58:38.511Z,100369.69
2023-01-19T08:01:41.932Z,100371.50
2023-01-19T08:04:48.932Z,100367.72
2023-01-19T08:07:54.182Z,100366.31
2023-01-19T08:10:57.176Z,100369.16
2023-01-19T08:14:00.827Z,100380.94
2023-01-19T08:17:04.858Z,100380.31
2023-01-19T08:20:11.248Z,100376.19
2023-01-19T08:23:14.104Z,100374.81
2023-01-19T08:26:20.769Z,100377.03
2023-01-19T08:29:23.770Z,100371.47
2023-01-19T08:32:27.170Z,100385.44
2023-01-19T08:35:31.498Z,100385.28
2023-01-19T08:38:34.385Z,100392.25
2023-01-19T08:41:37.330Z,100383.25
2023-01-19T08:44:49.678Z,100383.03
2023-01-19T08:48:00.150Z,100390.88
2023-01-19T08:51:04.614Z,100382.88
2023-01-19T08:54:07.519Z,100389.16
2023-01-19T08:57:10.446Z,100385.66
2023-01-19T09:00:14.561Z,100391.13
2023-01-19T09:03:17.499Z,100393.03
2023-01-19T09:06:21.868Z,100396.72
2023-01-19T09:09:24.754Z,100407.47
2023-01-19T09:12:27.721Z,100409.38
2023-01-19T09:15:30.564Z,100409.44
2023-01-19T09:18:33.645Z,100414.94
2023-01-19T09:21:37.834Z,100417.75
2023-01-19T09:24:40.812Z,100414.31
2023-01-19T09:27:43.749Z,100420.63
2023-01-19T09:30:46.948Z,100418.09
2023-01-19T09:33:49.939Z,100423.63
2023-01-19T09:36:54.200Z,100420.19
2023-01-19T09:39:57.091Z,100429.19
2023-01-19T09:43:12.965Z,100419.47
2023-01-19T09:46:20.256Z,100418.59
2023-01-19T09:49:32.696Z,100417.06
2023-01-19T09:52:43.020Z,100406.59
2023-01-19T09:55:46.024Z,100400.50
2023-01-19T09:58:50.947Z,100395.25
2023-01-19T10:02:07.716Z,100403.31
2023-01-19T10:05:26.104Z,100403.41
2023-01-19T10:08:38.814Z,100396.34
2023-01-19T10:11:52.877Z,100392.00
2023-01-19T10:15:04.754Z,100398.31
2023-01-19T10:18:18.297Z,100399.22
2023-01-19T10:21:24.235Z,100393.13
2023-01-19T10:24:33.596Z,100394.09
2023-01-19T10:27:37.590Z,100394.25
2023-01-19T10:30:43.671Z,100391.56
2023-01-19T10:33:46.688Z,100386.25
2023-01-19T10:36:51.548Z,100391.56
2023-01-19T10:39:58.209Z,100382.75
2023-01-19T10:43:02.035Z,100392.53
2023-01-19T10:46:07.537Z,100386.25
2023-01-19T10:49:25.591Z,100385.44
2023-01-19T10:52:32.810Z,100389.00
2023-01-19T10:55:38.754Z,100390.75
2023-01-19T10:58:41.796Z,100393.47
2023-01-19T11:01:44.838Z,100389.00
2023-01-19T11:04:50.199Z,100384.56
2023-01-19T11:07:53.280Z,100388.91
2023-01-19T11:11:04.353Z,100387.13
2023-01-19T11:14:12.487Z,100393.31
2023-01-19T11:17:21.694Z,100389.69
2023-01-19T11:20:27.171Z,100380.94
2023-01-19T11:23:32.591Z,100380.94
2023-01-19T11:26:43.134Z,100385.44
2023-01-19T11:29:49.495Z,100388.91
2023-01-19T11:32:52.677Z,100386.44
2023-01-19T11:36:04.694Z,100374.94
2023-01-19T11:39:23.646Z,100380.25
2023-01-19T11:42:31.182Z,100369.69
2023-01-19T11:45:36.140Z,100367.97
2023-01-19T11:48:43.653Z,100375.94
2023-01-19T11:51:56.453Z,100368.91
2023-01-19T11:55:04.924Z,100372.41
2023-01-19T11:58:16.075Z,100368.97
2023-01-19T12:01:24.765Z,100370.81
2023-01-19T12:04:31.601Z,100357.56
2023-01-19T12:07:37.455Z,100362.97
2023-01-19T12:10:45.933Z,100365.63
2023-01-19T12:13:52.467Z,100362.22
2023-01-19T12:17:00.174Z,100359.53
2023-01-19T12:20:14.061Z,100357.75
2023-01-19T12:23:36.068Z,100360.31
2023-01-19T12:26:44.090Z,100362.88
2023-01-19T12:29:48.970Z,100360.31
2023-01-19T12:32:52.323Z,100364.78
2023-01-19T12:35:57.522Z,100354.13
2023-01-19T12:39:03.955Z,100369.22
2023-01-19T12:42:13.722Z,100366.56
2023-01-19T12:45:22.996Z,100368.41
2023-01-19T12:48:27.681Z,100370.09
2023-01-19T12:51:30.713Z,100369.22
2023-01-19T12:54:34.043Z,100357.75
2023-01-19T12:57:40.089Z,100370.97
2023-01-19T13:00:46.285Z,100372.69
2023-01-19T13:04:06.687Z,100369.94
2023-01-19T13:07:17.872Z,100377.06
2023-01-19T13:10:55.832Z,100383.25
2023-01-19T13:14:34.742Z,100385.03
2023-01-19T13:17:49.931Z,100392.09
2023-01-19T13:20:58.147Z,100389.44
2023-01-19T13:24:02.763Z,100396.56
2023-01-19T13:27:05.922Z,100395.69
2023-01-19T13:30:16.921Z,100395.69
2023-01-19T13:33:24.298Z,100385.03
2023-01-19T13:36:31.613Z,100383.34
2023-01-19T13:39:37.915Z,100381.47
2023-01-19T13:42:42.658Z,100399.22
2023-01-19T13:45:51.756Z,100406.34
2023-01-19T13:49:00.885Z,100401.97
2023-01-19T13:52:12.752Z,100406.47
2023-01-19T13:55:16.796Z,100404.78
2023-01-19T13:58:22.233Z,100408.38
2023-01-19T14:01:28.903Z,100401.34
2023-01-19T14:04:34.900Z,100398.69
2023-01-19T14:07:37.835Z,100418.19
2023-01-19T14:10:42.895Z,100414.66
2023-01-19T14:13:45.809Z,100421.69
2023-01-19T14:16:48.670Z,100424.44
2023-01-19T14:19:54.467Z,100431.53
2023-01-19T14:22:57.357Z,100427.19
2023-01-19T14:26:00.204Z,100428.09
2023-01-19T14:29:15.427Z,100433.44
2023-01-19T14:32:20.477Z,100432.59
2023-01-19T14:35:26.279Z,100436.19
2023-01-19T14:38:29.123Z,100438.75
2023-01-19T14:41:39.610Z,100434.38
2023-01-19T14:44:48.058Z,100435.25
2023-01-19T14:47:58.153Z,100436.03
2023-01-19T14:51:05.423Z,100444.94
2023-01-19T14:54:18.286Z,100443.16
2023-01-19T14:57:21.071Z,100437.81
2023-01-19T15:00:24.678Z,100451.13
2023-01-19T15:03:43.630Z,100452.06
2023-01-19T15:06:49.718Z,100444.94
2023-01-19T15:09:52.830Z,100445.03
2023-01-19T15:12:56.761Z,100454.72
2023-01-19T15:15:59.691Z,100449.38
2023-01-19T15:19:02.611Z,100449.34
2023-01-19T15:22:12.426Z,100452.81
2023-01-19T15:25:16.779Z,100457.22
2023-01-19T15:28:20.926Z,100458.94
2023-01-19T15:31:26.633Z,100459.88
2023-01-19T15:34:29.537Z,100457.13
2023-01-19T15:37:33.763Z,100461.59
2023-01-19T15:40:36.640Z,100472.25
2023-01-19T15:43:39.501Z,100454.56
2023-01-19T15:46:42.295Z,100461.69
2023-01-19T15:49:45.197Z,100459.03
2023-01-19T15:52:49.514Z,100457.22
2023-01-19T15:55:55.325Z,100462.56
2023-01-19T15:58:59.144Z,100466.91
2023-01-19T16:02:02.516Z,100477.56
2023-01-19T16:05:06.421Z,100475.00
2023-01-19T16:08:11.010Z,100473.19
2023-01-19T16:11:18.423Z,100475.00
2023-01-19T16:14:21.443Z,100469.66
2023-01-19T16:17:24.540Z,100468.78
2023-01-19T16:20:27.886Z,100473.19
2023-01-19T16:23:47.564Z,100474.13
2023-01-19T16:26:50.489Z,100477.66
2023-01-19T16:29:53.649Z,100467.88
2023-01-19T16:32:56.531Z,100472.25
2023-01-19T16:35:59.388Z,100466.91
2023-01-19T16:39:06.773Z,100472.25
2023-01-19T16:42:09.766Z,100488.19
2023-01-19T16:45:12.692Z,100485.63
2023-01-19T16:48:15.543Z,100489.06
2023-01-19T16:51:18.839Z,100489.06
2023-01-19T16:54:25.979Z,100484.63
2023-01-19T16:57:29.952Z,100494.41
2023-01-19T17:00:32.831Z,100493.53
2023-01-19T17:03:35.759Z,100492.59
2023-01-19T17:06:39.186Z,100488.16
2023-01-19T17:09:43.446Z,100498.69
2023-01-19T17:12:46.367Z,100496.91
2023-01-19T17:15:49.178Z,100505.75
2023-01-19T17:18:52.772Z,100507.47
2023-01-19T17:21:55.647Z,100507.47
2023-01-19T17:24:59.903Z,100507.47
2023-01-19T17:28:02.759Z,100507.47
2023-01-19T17:31:07.237Z,100509.19
2023-01-19T17:34:10.711Z,100504.81
2023-01-19T17:37:13.650Z,100512.78
2023-01-19T17:40:18.302Z,100513.66
2023-01-19T17:43:21.167Z,100518.03
2023-01-19T17:46:25.676Z,100516.22
2023-01-19T17:49:28.700Z,100517.19
2023-01-19T17:52:31.666Z,100516.31
2023-01-19T17:55:35.949Z,100522.56
2023-01-19T17:58:39.163Z,100518.19
2023-01-19T18:01:42.918Z,100530.63
2023-01-19T18:04:45.975Z,100527.19
2023-01-19T18:07:48.869Z,100523.66
2023-01-19T18:10:56.604Z,100515.69
2023-01-19T18:14:00.182Z,100526.41
2023-01-19T18:17:03.086Z,100530.78
2023-01-19T18:20:06.904Z,100535.09
2023-01-19T18:23:09.797Z,100533.28
2023-01-19T18:26:15.598Z,100534.22
2023-01-19T18:29:19.298Z,100532.50
2023-01-19T18:32:22.274Z,100532.59
2023-01-19T18:35:25.191Z,100539.72
2023-01-19T18:38:28.320Z,100540.59
2023-01-19T18:41:34.131Z,100535.25
2023-01-19T18:44:37.196Z,100537.84
2023-01-19T18:47:40.090Z,100534.41
2023-01-19T18:50:43.928Z,100529.00
2023-01-19T18:53:47.315Z,100545.81
2023-01-19T18:56:52.132Z,100542.19
2023-01-19T18:59:54.999Z,100547.53
2023-01-19T19:02:58.467Z,100550.28
2023-01-19T19:06:03.670Z,100548.47
2023-01-19T19:09:06.807Z,100557.38
2023-01-19T19:12:11.178Z,100564.44
2023-01-19T19:15:14.276Z,100561.78
2023-01-19T19:18:17.084Z,100565.38
2023-01-19T19:21:24.040Z,100570.69
2023-01-19T19:24:27.121Z,100574.22
2023-01-19T19:27:31.365Z,100587.44
2023-01-19T19:30:37.760Z,100593.72
2023-01-19T19:33:41.216Z,100608.69
2023-01-19T19:36:45.713Z,100606.06
2023-01-19T19:39:49.271Z,100607.03
2023-01-19T19:42:53.531Z,100605.28
2023-01-19T19:46:00.189Z,100608.81
2023-01-19T19:49:03.164Z,100614.16
2023-01-19T19:52:06.649Z,100623.00
2023-01-19T19:55:12.652Z,100616.81
2023-01-19T19:58:17.067Z,100621.25
2023-01-19T20:01:24.003Z,100627.38
2023-01-19T20:04:28.306Z,100632.69
2023-01-19T20:07:31.359Z,100630.91
2023-01-19T20:10:37.437Z,100631.75
2023-01-19T20:13:43.355Z,100640.66
2023-01-19T20:16:46.270Z,100638.97
2023-01-19T20:19:49.335Z,100637.22
2023-01-19T20:22:52.898Z,100636.31
2023-01-19T20:25:55.703Z,100637.22
2023-01-19T20:29:02.847Z,100634.56
2023-01-19T20:32:05.989Z,100645.22
2023-01-19T20:35:08.917Z,100647.88
2023-01-19T20:38:11.770Z,100662.03
2023-01-19T20:41:14.881Z,100660.25
2023-01-19T20:44:22.321Z,100665.56
2023-01-19T20:47:25.896Z,100663.84
2023-01-19T20:50:28.735Z,100669.16
2023-01-19T20:53:32.539Z,100671.81
2023-01-19T20:56:35.394Z,100675.44
2023-01-19T20:59:40.956Z,100674.56
2023-01-19T21:02:43.961Z,100676.34
2023-01-19T21:05:47.680Z,100678.19
2023-01-19T21:08:50.700Z,100669.31
2023-01-19T21:11:56.526Z,100681.69
2023-01-19T21:15:01.635Z,100690.53
2023-01-19T21:18:04.933Z,100696.72
2023-01-19T21:21:10.690Z,100695.84
2023-01-19T21:24:17.993Z,100700.31
2023-01-19T21:27:21.198Z,100706.50
2023-01-19T21:30:25.434Z,100707.44
2023-01-19T21:33:28.306Z,100701.25
2023-01-19T21:36:31.198Z,100698.69
2023-01-19T21:39:34.106Z,100702.25
2023-01-19T21:42:37.004Z,100706.72
2023-01-19T21:45:43.093Z,100705.88
2023-01-19T21:48:46.833Z,100713.88
2023-01-19T21:51:50.666Z,100718.31
2023-01-19T21:54:53.530Z,100726.31
2023-01-19T21:57:56.390Z,100733.31
2023-01-19T22:01:05.429Z,100731.63
2023-01-19T22:04:08.434Z,100739.59
2023-01-19T22:07:11.323Z,100739.59
2023-01-19T22:10:14.135Z,100742.25
2023-01-19T22:13:17.430Z,100745.84
2023-01-19T22:16:23.178Z,100747.59
2023-01-19T22:19:26.014Z,100759.09
2023-01-19T22:22:28.906Z,100759.09
2023-01-19T22:25:33.935Z,100768.88
2023-01-19T22:28:37.365Z,100773.25
2023-01-19T22:31:41.564Z,100775.91
2023-01-19T22:34:44.448Z,100778.56
2023-01-19T22:37:47.294Z,100781.22
2023-01-19T22:40:50.156Z,100781.22
2023-01-19T22:43:55.755Z,100786.56
2023-01-19T22:46:59.941Z,100789.28
2023-01-19T22:50:02.793Z,100791.09
2023-01-19T22:53:05.660Z,100793.75
2023-01-19T22:56:12.977Z,100788.41
2023-01-19T22:59:15.878Z,100802.69
2023-01-19T23:02:21.010Z,100799.06
2023-01-19T23:05:24.098Z,100803.50
2023-01-19T23:08:26.972Z,100801.72
2023-01-19T23:11:35.551Z,100804.38
2023-01-19T23:14:38.747Z,100807.13
2023-01-19T23:17:44.710Z,100818.66
2023-01-19T23:20:47.604Z,100806.25
2023-01-19T23:23:53.626Z,100812.53
2023-01-19T23:26:56.477Z,100809.88
2023-01-19T23:29:59.331Z,100811.66
2023-01-19T23:33:03.578Z,100824.00
2023-01-19T23:36:07.202Z,100816.91
2023-01-19T23:39:17.481Z,100823.97
2023-01-19T23:42:20.298Z,100825.75
2023-01-19T23:45:23.129Z,100821.34
2023-01-19T23:48:27.429Z,100827.53
2023-01-19T23:51:32.343Z,100827.53
2023-01-19T23:54:35.501Z,100835.53
2023-01-19T23:57:38.273Z,100842.63
